Pagrindinis puslapis
METAR-TAF:

METAR-TAF

Oro uostai :

Niamtugu, Togas

platuma: 09-46N, ilguma: 001-06E, Aukštis: 342 m

Dabartinis oras

Ataskaita buvo paskelbta 56 minutes, ne 17:00 UTC
Vėjas 4 kt iš Šiaurės Vakarų, svyruoja nuo Vakarų ir Šiaurės
Temperatūra 34°C
Drėgmė 32%
Slėgis 1010 hPa
Matomumas 10 km arba daugiau
nėra debesų žemiau 1500 m ir nėra kamuolinių lietaus debesų

METAR: DXNG 291700Z 31004KT 270V350 CAVOK 34/15 Q1010

Laikas: 17:56 (17:56 UTC)

Prognozė

Ataskaita buvo paskelbta 56 minutes, ne 17:00 UTC
Prognozė galioja nuo 29 metu 18 UTC su 01 metu 18 UTC
Vėjas 5 kt nuo kintamojo kryptimis
Matomumas 10 km arba daugiau
Mažai debesys ne aukštis 800 ft

TAF: DXNG 291700Z 2918/0118 VRB05KT 9999 FEW008

Orai ataskaitas ir orų prognozės (METAR, TAF).

turimą stotys yra geltonos ir raudonos taškus žemėlapyje.

Perkelti pele per norėdami pamatyti stoties vardą.

Tada spustelėkite, norėdami matyti oro stebėjimo ir prognozės.

Norėdami pakeisti žemėlapį: spustelėkite ant žalios mygtukų su juodo kryžiaus žemyn,; žalią mygtuką su brūkšneliu, jei norite nutolinti; arba žalių rodyklių gretimoms žemėlapius.


METAR-TAF: